createdAt,value
2022-08-05T00:00:16.528Z,2.40
2022-08-05T00:02:50.488Z,2.80
2022-08-05T00:06:01.821Z,3.38
2022-08-05T00:08:05.587Z,4.32
2022-08-05T00:10:51.709Z,4.05
2022-08-05T00:13:18.613Z,5.90
2022-08-05T00:15:55.410Z,5.63
2022-08-05T00:18:24.817Z,5.85
2022-08-05T00:20:51.649Z,5.43
2022-08-05T00:23:44.287Z,4.43
2022-08-05T00:26:05.747Z,4.13
2022-08-05T00:28:32.862Z,5.07
2022-08-05T00:31:02.806Z,4.07
2022-08-05T00:34:54.891Z,4.53
2022-08-05T00:37:08.999Z,4.50
2022-08-05T00:39:04.301Z,4.60
2022-08-05T00:41:55.655Z,4.53
2022-08-05T00:44:19.192Z,4.72
2022-08-05T00:46:47.559Z,4.82
2022-08-05T00:49:20.785Z,4.73
2022-08-05T00:51:51.741Z,4.03
2022-08-05T00:54:18.778Z,4.63
2022-08-05T00:56:51.284Z,4.00
2022-08-05T00:59:18.260Z,3.00
2022-08-05T01:01:48.595Z,2.88
2022-08-05T01:04:15.792Z,2.08
2022-08-05T01:06:43.687Z,2.10
2022-08-05T01:09:14.775Z,1.95
2022-08-05T01:11:44.135Z,1.55
2022-08-05T01:14:33.012Z,1.90
2022-08-05T01:17:12.113Z,1.70
2022-08-05T01:20:03.564Z,1.80
2022-08-05T01:22:43.027Z,1.67
2022-08-05T01:25:39.642Z,1.60
2022-08-05T01:28:23.373Z,2.10
2022-08-05T01:30:59.194Z,1.92
2022-08-05T01:33:35.508Z,2.45
2022-08-05T01:36:12.856Z,2.72
2022-08-05T01:38:40.051Z,1.92
2022-08-05T01:41:07.662Z,2.00
2022-08-05T01:43:35.920Z,2.13
2022-08-05T01:46:07.171Z,2.53
2022-08-05T01:48:44.490Z,2.17
2022-08-05T01:51:12.525Z,2.83
2022-08-05T01:53:57.923Z,2.65
2022-08-05T01:58:29.306Z,2.78
2022-08-05T01:59:18.214Z,2.78
2022-08-05T02:01:46.661Z,2.33
2022-08-05T02:04:14.910Z,2.30
2022-08-05T02:06:41.353Z,2.20
2022-08-05T02:09:11.583Z,2.30
2022-08-05T02:11:52.333Z,2.20
2022-08-05T02:14:27.993Z,2.65
2022-08-05T02:16:55.340Z,2.35
2022-08-05T02:19:36.126Z,2.47
2022-08-05T02:22:33.448Z,2.67
2022-08-05T02:25:06.380Z,2.08
2022-08-05T02:27:59.791Z,2.30
2022-08-05T02:30:22.810Z,2.03
2022-08-05T02:32:55.706Z,2.20
2022-08-05T02:35:28.090Z,2.60
2022-08-05T02:38:00.271Z,2.75
2022-08-05T02:40:29.063Z,3.03
2022-08-05T02:42:56.569Z,3.05
2022-08-05T02:45:25.273Z,3.35
2022-08-05T02:48:06.999Z,3.13
2022-08-05T02:50:38.910Z,2.97
2022-08-05T02:53:11.975Z,3.22
2022-08-05T02:55:52.078Z,3.17
2022-08-05T02:58:23.094Z,3.33
2022-08-05T03:00:55.692Z,3.00
2022-08-05T03:03:23.603Z,3.45
2022-08-05T03:06:55.960Z,3.17
2022-08-05T03:08:39.075Z,2.72
2022-08-05T03:11:56.205Z,2.80
2022-08-05T03:14:13.260Z,2.78
2022-08-05T03:16:40.743Z,2.70
2022-08-05T03:19:17.342Z,2.80
2022-08-05T03:21:53.791Z,3.05
2022-08-05T03:24:23.650Z,3.35
2022-08-05T03:26:56.853Z,3.10
2022-08-05T03:29:23.801Z,3.13
2022-08-05T03:31:57.073Z,3.00
2022-08-05T03:34:27.984Z,3.10
2022-08-05T03:36:55.271Z,3.40
2022-08-05T03:39:27.320Z,3.70
2022-08-05T03:41:56.382Z,3.22
2022-08-05T03:44:23.406Z,3.03
2022-08-05T03:46:49.805Z,3.15
2022-08-05T03:49:16.242Z,3.25
2022-08-05T03:52:36.628Z,3.75
2022-08-05T03:55:34.249Z,3.28
2022-08-05T03:57:41.605Z,3.22
2022-08-05T04:00:11.248Z,3.50
2022-08-05T04:02:52.292Z,3.30
2022-08-05T04:05:25.519Z,3.22
2022-08-05T04:07:58.708Z,3.75
2022-08-05T04:10:32.128Z,3.92
2022-08-05T04:13:04.321Z,3.50
2022-08-05T04:15:32.942Z,3.88
2022-08-05T04:18:03.325Z,4.15
2022-08-05T04:20:29.699Z,3.63
2022-08-05T04:22:58.154Z,3.53
2022-08-05T04:25:56.856Z,3.45
2022-08-05T04:28:11.258Z,3.30
2022-08-05T04:30:39.230Z,3.78
2022-08-05T04:33:06.141Z,3.92
2022-08-05T04:36:10.699Z,4.38
2022-08-05T04:38:20.475Z,4.50
2022-08-05T04:40:50.565Z,5.95
2022-08-05T04:43:17.574Z,6.68
2022-08-05T04:45:54.881Z,7.10
2022-08-05T04:48:27.438Z,6.70
2022-08-05T04:51:03.117Z,7.05
2022-08-05T04:53:33.402Z,7.03
2022-08-05T04:56:33.873Z,6.70
2022-08-05T04:58:46.739Z,6.45
2022-08-05T05:01:13.439Z,7.20
2022-08-05T05:03:41.791Z,6.63
2022-08-05T05:06:39.760Z,7.03
2022-08-05T05:08:59.393Z,7.30
2022-08-05T05:11:41.593Z,6.57
2022-08-05T05:14:16.016Z,6.72
2022-08-05T05:16:42.753Z,6.78
2022-08-05T05:19:19.401Z,8.18
2022-08-05T05:21:50.107Z,7.32
2022-08-05T05:24:21.977Z,7.53
2022-08-05T05:26:48.638Z,8.35
2022-08-05T05:29:18.352Z,8.10
2022-08-05T05:31:46.317Z,7.15
2022-08-05T05:34:12.819Z,7.75
2022-08-05T05:36:41.947Z,6.47
2022-08-05T05:39:10.797Z,7.32
2022-08-05T05:41:40.681Z,7.22
2022-08-05T05:44:15.719Z,6.68
2022-08-05T05:46:55.135Z,7.07
2022-08-05T05:49:24.458Z,7.45
2022-08-05T05:51:51.064Z,7.82
2022-08-05T05:54:19.981Z,6.85
2022-08-05T05:56:47.335Z,6.68
2022-08-05T05:59:13.789Z,6.43
2022-08-05T06:01:57.016Z,7.03
2022-08-05T06:04:23.923Z,5.85
2022-08-05T06:06:50.525Z,6.72
2022-08-05T06:09:24.864Z,6.97
2022-08-05T06:12:01.173Z,7.05
2022-08-05T06:14:30.011Z,6.82
2022-08-05T06:16:57.061Z,7.47
2022-08-05T06:19:32.902Z,7.47
2022-08-05T06:22:03.404Z,7.15
2022-08-05T06:24:29.866Z,7.65
2022-08-05T06:26:57.531Z,6.47
2022-08-05T06:29:52.071Z,6.38
2022-08-05T06:32:25.013Z,5.97
2022-08-05T06:34:56.438Z,6.03
2022-08-05T06:37:56.369Z,6.65
2022-08-05T06:40:10.919Z,6.82
2022-08-05T06:42:39.847Z,6.70
2022-08-05T06:45:08.847Z,5.45
2022-08-05T06:48:47.059Z,5.50
2022-08-05T06:50:22.515Z,5.15
2022-08-05T06:53:03.493Z,5.63
2022-08-05T06:55:30.099Z,5.30
2022-08-05T06:58:20.162Z,6.45
2022-08-05T07:00:49.088Z,5.65
2022-08-05T07:03:16.681Z,5.30
2022-08-05T07:05:43.099Z,6.55
2022-08-05T07:08:10.667Z,6.32
2022-08-05T07:10:37.463Z,6.97
2022-08-05T07:13:57.063Z,7.22
2022-08-05T07:17:56.321Z,7.72
2022-08-05T07:22:00.733Z,7.25
2022-08-05T07:24:28.761Z,8.25
2022-08-05T07:26:56.474Z,8.63
2022-08-05T07:30:22.287Z,8.65
2022-08-05T07:32:09.176Z,8.88
2022-08-05T07:34:40.474Z,9.60
2022-08-05T07:37:11.489Z,10.40
2022-08-05T07:40:04.204Z,10.15
2022-08-05T07:42:33.473Z,10.45
2022-08-05T07:45:00.686Z,9.63
2022-08-05T07:47:27.092Z,9.68
2022-08-05T07:50:09.225Z,9.23
2022-08-05T07:52:39.810Z,6.95
2022-08-05T07:55:15.893Z,8.05
2022-08-05T07:58:02.056Z,8.15
2022-08-05T08:00:29.696Z,7.63
2022-08-05T08:03:14.322Z,7.75
2022-08-05T08:05:47.565Z,7.25
2022-08-05T08:08:16.248Z,7.40
2022-08-05T08:10:48.703Z,6.45
2022-08-05T08:13:16.017Z,5.35
2022-08-05T08:16:34.791Z,5.72
2022-08-05T08:18:41.551Z,5.95
2022-08-05T08:21:17.662Z,4.22
2022-08-05T08:24:02.806Z,4.68
2022-08-05T08:26:30.612Z,4.40
2022-08-05T08:28:59.821Z,3.80
2022-08-05T08:31:45.326Z,3.67
2022-08-05T08:34:11.761Z,3.20
2022-08-05T08:36:49.994Z,2.90
2022-08-05T08:39:19.818Z,3.55
2022-08-05T08:41:51.824Z,3.10
2022-08-05T08:45:22.799Z,3.10
2022-08-05T08:47:21.821Z,3.30
2022-08-05T08:50:31.825Z,3.33
2022-08-05T08:52:56.900Z,3.33
2022-08-05T08:55:31.988Z,3.08
2022-08-05T08:58:13.244Z,3.20
2022-08-05T09:00:40.490Z,3.17
2022-08-05T09:03:08.230Z,3.05
2022-08-05T09:05:38.632Z,3.42
2022-08-05T09:08:27.315Z,2.92
2022-08-05T09:10:56.554Z,2.72
2022-08-05T09:13:23.556Z,2.97
2022-08-05T09:15:50.711Z,3.25
2022-08-05T09:18:17.143Z,2.75
2022-08-05T09:20:45.722Z,2.95
2022-08-05T09:23:19.934Z,3.10
2022-08-05T09:25:59.946Z,2.58
2022-08-05T09:28:32.317Z,2.58
2022-08-05T09:32:39.081Z,2.75
2022-08-05T09:34:09.885Z,2.70
2022-08-05T09:36:45.676Z,3.03
2022-08-05T09:39:24.492Z,2.95
2022-08-05T09:42:07.811Z,2.42
2022-08-05T09:44:38.941Z,3.03
2022-08-05T09:47:16.978Z,2.70
2022-08-05T09:50:00.422Z,2.70
2022-08-05T09:52:31.219Z,2.45
2022-08-05T09:55:06.237Z,2.50
2022-08-05T09:57:54.716Z,2.88
2022-08-05T10:00:26.470Z,2.40
2022-08-05T10:02:54.540Z,2.60
2022-08-05T10:05:23.825Z,2.60
2022-08-05T10:08:34.528Z,2.40
2022-08-05T10:10:54.235Z,2.88
2022-08-05T10:13:47.133Z,2.50
2022-08-05T10:16:37.877Z,2.75
2022-08-05T10:19:10.106Z,2.50
2022-08-05T10:21:40.428Z,2.80
2022-08-05T10:24:10.903Z,2.53
2022-08-05T10:26:37.827Z,2.80
2022-08-05T10:29:24.188Z,3.10
2022-08-05T10:32:52.646Z,2.85
2022-08-05T10:34:51.078Z,2.60
2022-08-05T10:37:18.127Z,2.60
2022-08-05T10:39:59.442Z,2.70
2022-08-05T10:42:36.503Z,3.10
2022-08-05T10:45:21.284Z,2.45
2022-08-05T10:48:31.781Z,2.80
2022-08-05T10:50:58.856Z,2.95
2022-08-05T10:53:33.653Z,2.90
2022-08-05T10:56:21.224Z,3.03
2022-08-05T10:58:54.904Z,2.80
2022-08-05T11:01:54.248Z,2.75
2022-08-05T11:04:22.777Z,3.20
2022-08-05T11:07:04.226Z,2.85
2022-08-05T11:09:45.175Z,2.60
2022-08-05T11:12:37.281Z,3.40
2022-08-05T11:15:19.955Z,3.08
2022-08-05T11:17:59.891Z,3.45
2022-08-05T11:20:43.900Z,2.92
2022-08-05T11:24:02.233Z,3.30
2022-08-05T11:28:55.800Z,3.58
2022-08-05T11:31:57.570Z,3.25
2022-08-05T11:34:14.709Z,3.58
2022-08-05T11:36:47.151Z,3.35
2022-08-05T11:39:50.125Z,3.00
2022-08-05T11:42:28.105Z,3.30
2022-08-05T11:45:05.329Z,3.17
2022-08-05T11:47:49.426Z,3.40
2022-08-05T11:50:17.281Z,3.20
2022-08-05T11:52:44.120Z,3.22
2022-08-05T11:55:13.287Z,3.22
2022-08-05T11:58:08.447Z,3.35
2022-08-05T12:00:31.858Z,3.47
2022-08-05T12:02:58.508Z,3.65
2022-08-05T12:05:36.140Z,3.60
2022-08-05T12:08:10.885Z,3.95
2022-08-05T12:10:46.119Z,3.90
2022-08-05T12:13:18.869Z,4.63
2022-08-05T12:16:14.192Z,4.03
2022-08-05T12:18:42.701Z,4.90
2022-08-05T12:21:19.584Z,4.07
2022-08-05T12:24:07.010Z,4.65
2022-08-05T12:26:51.566Z,4.78
2022-08-05T12:29:23.283Z,4.95
2022-08-05T12:31:53.422Z,5.15
2022-08-05T12:34:23.757Z,5.53
2022-08-05T12:36:53.530Z,6.03
2022-08-05T12:39:20.290Z,5.32
2022-08-05T12:41:46.815Z,5.70
2022-08-05T12:44:21.566Z,5.20
2022-08-05T12:46:55.870Z,5.10
2022-08-05T12:49:22.502Z,4.70
2022-08-05T12:52:14.465Z,4.63
2022-08-05T12:54:46.310Z,4.82
2022-08-05T12:57:16.096Z,4.70
2022-08-05T13:00:08.430Z,4.70
2022-08-05T13:02:31.735Z,4.72
2022-08-05T13:04:58.638Z,5.03
2022-08-05T13:07:55.924Z,4.25
2022-08-05T13:10:19.924Z,4.95
2022-08-05T13:12:51.071Z,4.70
2022-08-05T13:15:41.148Z,5.38
2022-08-05T13:18:19.886Z,5.30
2022-08-05T13:20:47.246Z,5.35
2022-08-05T13:23:16.315Z,5.25
2022-08-05T13:25:52.366Z,5.55
2022-08-05T13:28:26.531Z,5.60
2022-08-05T13:30:53.256Z,5.40
2022-08-05T13:34:21.107Z,5.30
2022-08-05T13:36:06.849Z,5.47
2022-08-05T13:38:36.355Z,5.88
2022-08-05T13:41:08.503Z,6.43
2022-08-05T13:43:45.197Z,6.57
2022-08-05T13:46:44.296Z,7.05
2022-08-05T13:49:11.455Z,7.30
2022-08-05T13:51:41.057Z,7.88
2022-08-05T13:54:11.712Z,9.05
2022-08-05T13:56:44.937Z,8.20
2022-08-05T13:59:21.010Z,9.65
2022-08-05T14:01:58.413Z,9.50
2022-08-05T14:04:53.130Z,11.70
2022-08-05T14:08:00.907Z,12.05
2022-08-05T14:10:29.023Z,12.23
2022-08-05T14:12:58.170Z,11.52
2022-08-05T14:16:09.286Z,11.60
2022-08-05T14:18:14.833Z,11.68
2022-08-05T14:20:46.888Z,11.90
2022-08-05T14:23:13.445Z,12.00
2022-08-05T14:25:45.084Z,12.25
2022-08-05T14:28:16.068Z,12.38
2022-08-05T14:30:53.458Z,12.90
2022-08-05T14:33:22.616Z,12.77
2022-08-05T14:35:51.828Z,12.45
2022-08-05T14:38:32.625Z,12.73
2022-08-05T14:41:06.479Z,13.48
2022-08-05T14:43:59.016Z,14.68
2022-08-05T14:46:21.905Z,12.70
2022-08-05T14:48:49.358Z,13.52
2022-08-05T14:51:17.664Z,12.65
2022-08-05T14:53:44.997Z,13.48
2022-08-05T14:56:11.955Z,13.55
2022-08-05T14:58:39.750Z,12.38
2022-08-05T15:01:16.097Z,13.15
2022-08-05T15:03:43.877Z,11.50
2022-08-05T15:06:14.956Z,11.13
2022-08-05T15:09:01.541Z,10.30
2022-08-05T15:11:51.651Z,9.20
2022-08-05T15:14:33.640Z,9.07
2022-08-05T15:17:04.283Z,9.10
2022-08-05T15:19:32.682Z,8.50
2022-08-05T15:22:01.045Z,9.18
2022-08-05T15:24:28.279Z,8.13
2022-08-05T15:26:55.820Z,7.47
2022-08-05T15:29:22.499Z,6.93
2022-08-05T15:31:52.763Z,6.50
2022-08-05T15:34:32.209Z,6.60
2022-08-05T15:37:03.427Z,6.00
2022-08-05T15:41:00.501Z,5.47
2022-08-05T15:42:54.681Z,5.10
2022-08-05T15:45:06.197Z,5.03
2022-08-05T15:47:32.766Z,4.85
2022-08-05T15:50:03.593Z,4.32
2022-08-05T15:52:53.263Z,4.10
2022-08-05T15:55:17.523Z,3.15
2022-08-05T15:57:45.909Z,3.00
2022-08-05T16:00:32.616Z,3.15
2022-08-05T16:03:04.580Z,3.55
2022-08-05T16:05:31.827Z,3.00
2022-08-05T16:07:58.177Z,3.10
2022-08-05T16:10:26.825Z,2.60
2022-08-05T16:12:53.737Z,2.00
2022-08-05T16:15:22.933Z,3.38
2022-08-05T16:17:58.015Z,2.30
2022-08-05T16:20:25.250Z,2.00
2022-08-05T16:22:51.651Z,1.48
2022-08-05T16:25:18.398Z,1.70
2022-08-05T16:28:00.872Z,1.50
2022-08-05T16:30:32.075Z,1.20
2022-08-05T16:32:59.248Z,1.63
2022-08-05T16:35:28.521Z,1.10
2022-08-05T16:38:16.076Z,1.20
2022-08-05T16:40:51.807Z,1.00
2022-08-05T16:43:23.723Z,0.90
2022-08-05T16:46:05.303Z,0.93
2022-08-05T16:48:37.443Z,1.00
2022-08-05T16:51:09.002Z,1.00
2022-08-05T16:54:03.416Z,1.17
2022-08-05T16:56:23.563Z,0.98
2022-08-05T16:58:50.033Z,1.02
2022-08-05T17:01:16.637Z,1.05
2022-08-05T17:03:45.404Z,0.90
2022-08-05T17:06:11.814Z,1.02
2022-08-05T17:08:52.741Z,1.20
2022-08-05T17:11:20.293Z,0.98
2022-08-05T17:13:49.958Z,0.90
2022-08-05T17:16:32.535Z,1.08
2022-08-05T17:18:59.713Z,0.65
2022-08-05T17:21:26.075Z,0.80
2022-08-05T17:24:20.478Z,1.02
2022-08-05T17:26:50.309Z,1.00
2022-08-05T17:29:17.073Z,1.55
2022-08-05T17:31:59.000Z,1.15
2022-08-05T17:34:30.028Z,1.45
2022-08-05T17:36:59.576Z,1.13
2022-08-05T17:39:34.089Z,1.30
2022-08-05T17:42:28.553Z,1.08
2022-08-05T17:44:51.607Z,1.10
2022-08-05T17:47:22.063Z,1.10
2022-08-05T17:50:00.429Z,1.15
2022-08-05T17:52:32.155Z,0.85
2022-08-05T17:54:58.760Z,3.10
2022-08-05T17:57:25.325Z,1.70
2022-08-05T18:00:05.245Z,5.90
2022-08-05T18:02:32.574Z,1.33
2022-08-05T18:05:02.664Z,3.13
2022-08-05T18:07:32.813Z,2.47
2022-08-05T18:10:09.905Z,3.03
2022-08-05T18:12:37.455Z,2.03
2022-08-05T18:15:05.055Z,1.50
2022-08-05T18:17:59.724Z,1.40
2022-08-05T18:20:19.196Z,1.73
2022-08-05T18:22:54.187Z,1.27
2022-08-05T18:25:21.355Z,1.55
2022-08-05T18:27:50.650Z,1.42
2022-08-05T18:30:19.159Z,1.90
2022-08-05T18:32:53.671Z,1.85
2022-08-05T18:35:49.555Z,2.30
2022-08-05T18:38:13.482Z,2.05
2022-08-05T18:41:56.952Z,1.67
2022-08-05T18:43:31.519Z,2.05
2022-08-05T18:46:04.614Z,1.80
2022-08-05T18:48:33.203Z,1.38
2022-08-05T18:52:06.555Z,1.50
2022-08-05T18:54:05.474Z,1.70
2022-08-05T18:56:31.951Z,1.50
2022-08-05T18:59:00.814Z,1.40
2022-08-05T19:01:47.328Z,1.17
2022-08-05T19:04:14.741Z,1.67
2022-08-05T19:06:50.664Z,1.42
2022-08-05T19:09:17.163Z,1.55
2022-08-05T19:12:00.394Z,1.30
2022-08-05T19:14:53.356Z,1.35
2022-08-05T19:17:16.105Z,1.10
2022-08-05T19:19:46.743Z,1.30
2022-08-05T19:22:17.231Z,1.10
2022-08-05T19:24:54.378Z,1.55
2022-08-05T19:27:22.674Z,1.50
2022-08-05T19:29:49.854Z,1.30
2022-08-05T19:32:16.204Z,1.30
2022-08-05T19:34:54.963Z,1.20
2022-08-05T19:37:35.158Z,1.65
2022-08-05T19:40:10.118Z,1.52
2022-08-05T19:42:37.009Z,1.60
2022-08-05T19:45:06.956Z,1.42
2022-08-05T19:47:37.544Z,1.60
2022-08-05T19:50:06.216Z,1.50
2022-08-05T19:52:34.539Z,1.67
2022-08-05T19:55:07.203Z,1.83
2022-08-05T19:57:47.282Z,1.10
2022-08-05T20:00:22.072Z,1.42
2022-08-05T20:02:48.443Z,1.23
2022-08-05T20:05:16.678Z,1.30
2022-08-05T20:07:53.886Z,1.50
2022-08-05T20:10:24.445Z,1.13
2022-08-05T20:12:51.656Z,1.42
2022-08-05T20:15:23.465Z,1.35
2022-08-05T20:18:10.807Z,1.30
2022-08-05T20:20:55.044Z,1.35
2022-08-05T20:23:23.047Z,1.50
2022-08-05T20:25:49.426Z,1.60
2022-08-05T20:28:18.783Z,1.20
2022-08-05T20:30:45.250Z,1.52
2022-08-05T20:33:14.295Z,1.40
2022-08-05T20:35:45.498Z,1.30
2022-08-05T20:38:20.187Z,1.42
2022-08-05T20:40:53.618Z,1.38
2022-08-05T20:43:57.919Z,1.65
2022-08-05T20:46:10.017Z,1.77
2022-08-05T20:48:38.953Z,1.60
2022-08-05T20:51:08.655Z,1.75
2022-08-05T20:53:37.234Z,2.45
2022-08-05T20:56:09.477Z,2.25
2022-08-05T20:58:36.933Z,2.58
2022-08-05T21:01:04.182Z,2.00
2022-08-05T21:03:34.550Z,2.28
2022-08-05T21:06:01.591Z,2.55
2022-08-05T21:08:41.652Z,2.33
2022-08-05T21:11:12.937Z,1.88
2022-08-05T21:13:59.006Z,1.38
2022-08-05T21:16:29.102Z,1.92
2022-08-05T21:18:57.066Z,1.77
2022-08-05T21:21:43.901Z,1.27
2022-08-05T21:24:12.851Z,1.60
2022-08-05T21:26:39.906Z,1.70
2022-08-05T21:29:09.925Z,1.50
2022-08-05T21:31:41.077Z,1.58
2022-08-05T21:34:08.036Z,1.40
2022-08-05T21:36:36.814Z,1.48
2022-08-05T21:39:03.593Z,1.30
2022-08-05T21:41:33.711Z,1.40
2022-08-05T21:44:01.584Z,1.60
2022-08-05T21:46:30.715Z,1.10
2022-08-05T21:48:57.141Z,1.30
2022-08-05T21:52:21.972Z,1.40
2022-08-05T21:54:12.848Z,1.30
2022-08-05T21:56:44.227Z,1.70
2022-08-05T21:59:22.712Z,1.10
2022-08-05T22:01:51.610Z,1.38
2022-08-05T22:04:21.006Z,1.08
2022-08-05T22:06:51.955Z,1.40
2022-08-05T22:09:20.847Z,1.17
2022-08-05T22:11:48.379Z,1.33
2022-08-05T22:14:34.994Z,1.25
2022-08-05T22:17:05.282Z,1.30
2022-08-05T22:20:01.193Z,1.10
2022-08-05T22:22:27.375Z,1.35
2022-08-05T22:25:21.101Z,1.30
2022-08-05T22:28:09.781Z,1.10
2022-08-05T22:30:53.565Z,1.23
2022-08-05T22:33:55.553Z,1.70
2022-08-05T22:36:14.502Z,1.00
2022-08-05T22:38:42.557Z,1.35
2022-08-05T22:41:10.121Z,1.05
2022-08-05T22:43:38.115Z,1.60
2022-08-05T22:46:12.200Z,1.42
2022-08-05T22:48:41.025Z,1.67
2022-08-05T22:51:07.767Z,1.25
2022-08-05T22:53:35.973Z,1.35
2022-08-05T22:56:03.117Z,1.33
2022-08-05T22:58:29.503Z,1.20
2022-08-05T23:00:59.310Z,1.33
2022-08-05T23:03:58.140Z,1.30
2022-08-05T23:06:12.024Z,1.17
2022-08-05T23:08:38.405Z,1.20
2022-08-05T23:11:05.753Z,1.05
2022-08-05T23:13:35.208Z,1.23
2022-08-05T23:16:03.618Z,1.42
2022-08-05T23:18:30.187Z,1.30
2022-08-05T23:20:58.730Z,1.23
2022-08-05T23:23:25.807Z,1.40
2022-08-05T23:25:56.368Z,1.30
2022-08-05T23:28:28.735Z,1.30
2022-08-05T23:30:55.688Z,1.23
2022-08-05T23:34:04.122Z,1.25
2022-08-05T23:36:19.868Z,1.20
2022-08-05T23:38:46.430Z,1.00
2022-08-05T23:41:12.949Z,0.98
2022-08-05T23:44:03.008Z,0.93
2022-08-05T23:46:25.905Z,1.00
2022-08-05T23:48:59.608Z,0.90
2022-08-05T23:51:52.485Z,0.70
2022-08-05T23:54:25.621Z,0.90
2022-08-05T23:56:53.924Z,0.93
2022-08-05T23:59:20.310Z,1.02
